createdAt,value
2024-05-09T00:03:23.256Z,11.62
2024-05-09T00:06:48.492Z,11.56
2024-05-09T00:10:18.168Z,11.6
2024-05-09T00:13:38.905Z,11.64
2024-05-09T00:17:04.171Z,11.71
2024-05-09T00:20:35.621Z,11.75
2024-05-09T00:23:54.561Z,11.75
2024-05-09T00:27:19.805Z,11.72
2024-05-09T00:30:45.015Z,11.68
2024-05-09T00:34:10.358Z,11.65
2024-05-09T00:37:35.484Z,11.64
2024-05-09T00:41:00.771Z,11.69
2024-05-09T00:44:26.136Z,11.73
2024-05-09T00:47:51.553Z,11.79
2024-05-09T00:51:16.413Z,11.86
2024-05-09T00:54:41.627Z,11.89
2024-05-09T00:58:06.877Z,11.92
2024-05-09T01:01:32.165Z,11.94
2024-05-09T01:04:57.405Z,11.96
2024-05-09T01:08:22.549Z,11.94
2024-05-09T01:11:47.862Z,11.91
2024-05-09T01:15:12.954Z,11.84
2024-05-09T01:18:38.290Z,11.77
2024-05-09T01:22:03.409Z,11.72
2024-05-09T01:25:28.634Z,11.68
2024-05-09T01:28:53.842Z,11.69
2024-05-09T01:32:19.169Z,11.69
2024-05-09T01:35:44.411Z,11.68
2024-05-09T01:39:09.554Z,11.68
2024-05-09T01:42:34.773Z,11.64
2024-05-09T01:46:00.074Z,11.66
2024-05-09T01:49:25.548Z,11.67
2024-05-09T01:52:50.624Z,11.66
2024-05-09T01:56:15.841Z,11.65
2024-05-09T01:59:41.106Z,11.63
2024-05-09T02:03:06.394Z,11.64
2024-05-09T02:06:31.483Z,11.67
2024-05-09T02:09:56.691Z,11.69
2024-05-09T02:13:21.896Z,11.68
2024-05-09T02:16:47.140Z,11.69
2024-05-09T02:20:16.399Z,11.71
2024-05-09T02:23:37.662Z,11.74
2024-05-09T02:27:02.864Z,11.78
2024-05-09T02:30:31.111Z,11.8
2024-05-09T02:33:53.432Z,11.82
2024-05-09T02:37:18.487Z,11.83
2024-05-09T02:40:43.751Z,11.83
2024-05-09T02:44:08.964Z,11.81
2024-05-09T02:47:34.242Z,11.79
2024-05-09T02:50:59.379Z,11.8
2024-05-09T02:54:24.573Z,11.8
2024-05-09T02:57:49.880Z,11.82
2024-05-09T03:01:15.094Z,11.83
2024-05-09T03:04:40.381Z,11.85
2024-05-09T03:08:05.536Z,11.87
2024-05-09T03:11:30.779Z,11.85
2024-05-09T03:14:55.915Z,11.86
2024-05-09T03:18:21.319Z,11.86
2024-05-09T03:21:46.360Z,11.86
2024-05-09T03:25:11.595Z,11.87
2024-05-09T03:28:36.818Z,11.87
2024-05-09T03:32:02.105Z,11.87
2024-05-09T03:35:27.380Z,11.84
2024-05-09T03:38:52.533Z,11.78
2024-05-09T03:42:17.773Z,11.75
2024-05-09T03:45:42.994Z,11.7
2024-05-09T03:49:08.326Z,11.66
2024-05-09T03:52:33.436Z,11.61
2024-05-09T03:55:58.670Z,11.55
2024-05-09T03:59:23.905Z,11.44
2024-05-09T04:02:49.184Z,11.29
2024-05-09T04:06:14.271Z,11.15
2024-05-09T04:09:39.501Z,11
2024-05-09T04:13:04.743Z,10.96
2024-05-09T04:16:29.937Z,10.96
2024-05-09T04:19:55.221Z,11
2024-05-09T04:23:20.444Z,11.07
2024-05-09T04:26:45.627Z,11.14
2024-05-09T04:30:15.243Z,11.14
2024-05-09T04:33:36.357Z,11.11
2024-05-09T04:37:01.301Z,11.16
2024-05-09T04:40:31.197Z,11.23
2024-05-09T04:43:51.757Z,11.33
2024-05-09T04:47:17.002Z,11.46
2024-05-09T04:50:42.311Z,11.63
2024-05-09T04:54:08.541Z,11.87
2024-05-09T04:57:32.641Z,12.15
2024-05-09T05:00:58.133Z,12.41
2024-05-09T05:04:23.088Z,12.66
2024-05-09T05:07:48.348Z,12.86
2024-05-09T05:11:13.782Z,13.02
2024-05-09T05:14:38.798Z,13.1
2024-05-09T05:18:04.149Z,13.18
2024-05-09T05:21:29.246Z,13.23
2024-05-09T05:24:54.392Z,13.29
2024-05-09T05:28:19.606Z,13.36
2024-05-09T05:31:44.898Z,13.46
2024-05-09T05:35:10.482Z,13.54
2024-05-09T05:38:35.280Z,13.65
2024-05-09T05:42:00.545Z,13.77
2024-05-09T05:45:25.754Z,13.92
2024-05-09T05:48:51.136Z,14.11
2024-05-09T05:52:16.254Z,14.32
2024-05-09T05:55:41.454Z,14.51
2024-05-09T05:59:06.753Z,14.67
2024-05-09T06:02:31.959Z,14.85
2024-05-09T06:05:57.359Z,15
2024-05-09T06:09:22.443Z,15.13
2024-05-09T06:12:47.650Z,15.24
2024-05-09T06:16:12.895Z,15.35
2024-05-09T06:19:38.138Z,15.45
2024-05-09T06:23:03.495Z,15.52
2024-05-09T06:26:28.605Z,15.57
2024-05-09T06:29:53.776Z,15.57
2024-05-09T06:33:19.153Z,15.58
2024-05-09T06:36:44.190Z,15.61
2024-05-09T06:40:10.045Z,15.67
2024-05-09T06:43:34.794Z,15.7
2024-05-09T06:47:00.288Z,15.75
2024-05-09T06:50:28.037Z,15.78
2024-05-09T06:53:50.760Z,15.78
2024-05-09T06:57:16.118Z,15.75
2024-05-09T07:00:42.027Z,15.78
2024-05-09T07:04:06.923Z,15.87
2024-05-09T07:07:32.072Z,15.99
2024-05-09T07:10:57.474Z,16.049999
2024-05-09T07:14:22.782Z,16.07
2024-05-09T07:17:48.220Z,16.120001
2024-05-09T07:21:13.580Z,16.18
2024-05-09T07:24:38.815Z,16.27
2024-05-09T07:28:04.069Z,16.43
2024-05-09T07:31:29.375Z,16.549999
2024-05-09T07:34:54.683Z,16.68
2024-05-09T07:38:20.112Z,16.82
2024-05-09T07:41:45.351Z,16.940001
2024-05-09T07:45:21.013Z,17.030001
2024-05-09T07:49:43.953Z,17.15
2024-05-09T07:52:49.505Z,17.33
2024-05-09T07:55:26.548Z,17.49
2024-05-09T07:58:52.082Z,17.709999
2024-05-09T08:02:17.177Z,17.809999
2024-05-09T08:05:42.428Z,17.719999
2024-05-09T08:09:10.712Z,17.719999
2024-05-09T08:12:33.030Z,17.85
2024-05-09T08:15:58.311Z,17.92
2024-05-09T08:19:23.620Z,17.91
2024-05-09T08:22:48.907Z,17.98
2024-05-09T08:26:14.227Z,18
2024-05-09T08:29:39.557Z,17.9
2024-05-09T08:33:05.247Z,17.950001
2024-05-09T08:36:30.119Z,18.110001
2024-05-09T08:39:55.410Z,18.059999
2024-05-09T08:43:20.763Z,17.959999
2024-05-09T08:46:46.014Z,17.860001
2024-05-09T08:50:20.165Z,17.790001
2024-05-09T08:53:36.637Z,17.870001
2024-05-09T08:57:01.972Z,17.940001
2024-05-09T09:00:29.852Z,17.91
2024-05-09T09:03:52.727Z,17.82
2024-05-09T09:07:17.968Z,17.790001
2024-05-09T09:10:43.566Z,17.799999
2024-05-09T09:14:08.689Z,17.889999
2024-05-09T09:17:34.002Z,17.889999
2024-05-09T09:20:59.220Z,17.780001
2024-05-09T09:24:24.509Z,17.68
2024-05-09T09:27:49.889Z,17.57
2024-05-09T09:31:15.125Z,17.700001
2024-05-09T09:34:40.457Z,17.92
2024-05-09T09:38:05.689Z,18.17
2024-05-09T09:41:31.008Z,18.469999
2024-05-09T09:45:01.763Z,18.76
2024-05-09T09:48:21.997Z,18.99
2024-05-09T09:51:47.006Z,19.17
2024-05-09T09:55:12.320Z,19.33
2024-05-09T09:58:38.057Z,19.49
2024-05-09T10:02:03.491Z,19.610001
2024-05-09T10:05:29.062Z,19.709999
2024-05-09T10:08:54.071Z,19.879999
2024-05-09T10:12:19.393Z,20.040001
2024-05-09T10:15:44.763Z,20.190001
2024-05-09T10:19:10.235Z,20.35
2024-05-09T10:22:35.387Z,20.440001
2024-05-09T10:26:00.699Z,20.370001
2024-05-09T10:29:33.441Z,20.200001
2024-05-09T10:32:58.799Z,20.219999
2024-05-09T10:36:24.099Z,20.389999
2024-05-09T10:39:49.451Z,20.530001
2024-05-09T10:43:14.778Z,20.709999
2024-05-09T10:46:40.015Z,20.709999
2024-05-09T10:50:07.826Z,20.59
2024-05-09T10:53:30.678Z,20.639999
2024-05-09T10:56:55.974Z,20.73
2024-05-09T11:00:23.586Z,20.879999
2024-05-09T11:03:46.891Z,20.950001
2024-05-09T11:07:12.906Z,20.969999
2024-05-09T11:10:38.220Z,21.09
2024-05-09T11:14:03.515Z,21.290001
2024-05-09T11:17:28.915Z,21.26
2024-05-09T11:20:54.147Z,20.959999
2024-05-09T11:24:19.435Z,20.790001
2024-05-09T11:27:44.792Z,20.799999
2024-05-09T11:31:10.579Z,20.85
2024-05-09T11:34:35.377Z,20.879999
2024-05-09T11:38:00.644Z,20.950001
2024-05-09T11:41:25.956Z,21.09
2024-05-09T11:44:51.264Z,21.1
2024-05-09T11:48:16.764Z,20.84
2024-05-09T11:51:41.921Z,20.719999
2024-05-09T11:55:07.234Z,20.5
2024-05-09T11:58:32.503Z,20.18
2024-05-09T12:01:57.883Z,20.139999
2024-05-09T12:05:23.179Z,20.280001
2024-05-09T12:08:48.436Z,20.48
2024-05-09T12:12:13.683Z,20.65
2024-05-09T12:15:39.370Z,20.780001
2024-05-09T12:19:04.350Z,20.82
2024-05-09T12:22:29.566Z,20.85
2024-05-09T12:25:54.868Z,20.84
2024-05-09T12:29:23.398Z,20.870001
2024-05-09T12:32:48.854Z,20.870001
2024-05-09T12:36:14.004Z,21.01
2024-05-09T12:39:39.357Z,21.07
2024-05-09T12:43:05.027Z,21.040001
2024-05-09T12:46:30.042Z,20.74
2024-05-09T12:49:55.318Z,20.49
2024-05-09T12:53:20.604Z,20.27
2024-05-09T12:56:45.933Z,20.370001
2024-05-09T13:00:17.312Z,20.49
2024-05-09T13:03:36.806Z,20.610001
2024-05-09T13:07:02.698Z,20.790001
2024-05-09T13:10:31.015Z,20.940001
2024-05-09T13:13:52.520Z,20.99
2024-05-09T13:17:17.845Z,21.09
2024-05-09T13:20:43.126Z,21.190001
2024-05-09T13:24:08.425Z,21.25
2024-05-09T13:27:33.738Z,21.139999
2024-05-09T13:30:59.014Z,20.719999
2024-05-09T13:34:24.338Z,20.4
2024-05-09T13:37:49.608Z,20.16
2024-05-09T13:41:14.897Z,20.09
2024-05-09T13:44:40.189Z,20.190001
2024-05-09T13:48:05.584Z,20.32
2024-05-09T13:51:30.936Z,20.200001
2024-05-09T13:54:56.187Z,20
2024-05-09T13:58:21.452Z,19.83
2024-05-09T14:01:46.782Z,19.68
2024-05-09T14:05:12.268Z,19.58
2024-05-09T14:08:37.355Z,19.6
2024-05-09T14:12:02.637Z,19.75
2024-05-09T14:15:27.944Z,19.889999
2024-05-09T14:18:53.230Z,20.08
2024-05-09T14:22:18.489Z,20.15
2024-05-09T14:25:44.512Z,20.25
2024-05-09T14:29:09.117Z,20.389999
2024-05-09T14:32:34.570Z,20.52
2024-05-09T14:35:59.720Z,20.65
2024-05-09T14:39:25.034Z,20.790001
2024-05-09T14:42:50.387Z,20.790001
2024-05-09T14:46:15.673Z,20.709999
2024-05-09T14:49:41.046Z,20.629999
2024-05-09T14:53:06.872Z,20.51
2024-05-09T14:56:31.519Z,20.280001
2024-05-09T14:59:56.898Z,19.99
2024-05-09T15:03:22.709Z,19.82
2024-05-09T15:06:47.583Z,19.780001
2024-05-09T15:10:16.501Z,19.780001
2024-05-09T15:13:38.195Z,19.780001
2024-05-09T15:17:03.480Z,19.82
2024-05-09T15:20:31.714Z,19.82
2024-05-09T15:23:54.064Z,19.870001
2024-05-09T15:27:19.374Z,19.959999
2024-05-09T15:30:46.105Z,20.059999
2024-05-09T15:34:10.066Z,20.15
2024-05-09T15:37:35.238Z,20.18
2024-05-09T15:41:00.564Z,20.200001
2024-05-09T15:44:25.773Z,20.190001
2024-05-09T15:47:51.176Z,20.200001
2024-05-09T15:51:16.412Z,20.200001
2024-05-09T15:54:41.684Z,20.139999
2024-05-09T15:58:07.393Z,20.02
2024-05-09T16:01:32.310Z,19.940001
2024-05-09T16:04:57.555Z,19.860001
2024-05-09T16:08:23.492Z,19.790001
2024-05-09T16:11:48.816Z,19.74
2024-05-09T16:15:14.100Z,19.66
2024-05-09T16:18:39.448Z,19.59
2024-05-09T16:22:04.707Z,19.540001
2024-05-09T16:25:30.032Z,19.42
2024-05-09T16:28:55.282Z,19.33
2024-05-09T16:32:20.579Z,19.24
2024-05-09T16:35:45.831Z,19.209999
2024-05-09T16:39:11.117Z,19.219999
2024-05-09T16:42:36.502Z,19.17
2024-05-09T16:46:01.734Z,19.120001
2024-05-09T16:49:27.165Z,19.049999
2024-05-09T16:52:52.485Z,19
2024-05-09T16:56:17.807Z,18.950001
2024-05-09T16:59:43.151Z,18.969999
2024-05-09T17:03:08.658Z,19.01
2024-05-09T17:06:33.771Z,19.030001
2024-05-09T17:09:59.054Z,19.049999
2024-05-09T17:13:24.422Z,19.1
2024-05-09T17:16:49.612Z,19.120001
2024-05-09T17:20:22.444Z,19.1
2024-05-09T17:23:40.139Z,19.030001
2024-05-09T17:27:05.441Z,18.99
2024-05-09T17:30:34.485Z,18.92
2024-05-09T17:33:56.119Z,18.83
2024-05-09T17:37:21.422Z,18.76
2024-05-09T17:40:46.658Z,18.690001
2024-05-09T17:44:11.915Z,18.59
2024-05-09T17:47:37.411Z,18.49
2024-05-09T17:51:02.658Z,18.4
2024-05-09T17:54:27.892Z,18.34
2024-05-09T17:57:53.208Z,18.26
2024-05-09T18:01:18.526Z,18.200001
2024-05-09T18:04:50.695Z,18.1
2024-05-09T18:08:16.330Z,18.02
2024-05-09T18:11:41.631Z,17.969999
2024-05-09T18:15:07.002Z,17.9
2024-05-09T18:18:32.404Z,17.83
2024-05-09T18:21:57.636Z,17.75
2024-05-09T18:25:22.957Z,17.68
2024-05-09T18:28:48.225Z,17.59
2024-05-09T18:32:13.537Z,17.469999
2024-05-09T18:35:38.817Z,17.360001
2024-05-09T18:39:04.106Z,17.26
2024-05-09T18:42:29.404Z,17.17
2024-05-09T18:45:54.776Z,17.1
2024-05-09T18:49:20.186Z,17
2024-05-09T18:52:45.349Z,16.91
2024-05-09T18:56:10.667Z,16.790001
2024-05-09T18:59:35.981Z,16.66
2024-05-09T19:03:01.540Z,16.530001
2024-05-09T19:06:26.572Z,16.379999
2024-05-09T19:09:51.867Z,16.26
2024-05-09T19:13:17.194Z,16.18
2024-05-09T19:16:42.446Z,16.120001
2024-05-09T19:20:11.499Z,16.07
2024-05-09T19:23:37.849Z,16.01
2024-05-09T19:26:58.341Z,15.96
2024-05-09T19:30:25.740Z,15.91
2024-05-09T19:33:49.100Z,15.88
2024-05-09T19:37:14.376Z,15.86
2024-05-09T19:40:39.639Z,15.8
2024-05-09T19:44:04.914Z,15.75
2024-05-09T19:47:30.280Z,15.72
2024-05-09T19:50:55.586Z,15.71
2024-05-09T19:54:20.858Z,15.66
2024-05-09T19:57:46.151Z,15.59
2024-05-09T20:01:11.508Z,15.53
2024-05-09T20:04:36.831Z,15.51
2024-05-09T20:08:02.055Z,15.47
2024-05-09T20:11:27.401Z,15.42
2024-05-09T20:14:52.569Z,15.39
2024-05-09T20:18:17.924Z,15.32
2024-05-09T20:21:43.274Z,15.24
2024-05-09T20:25:08.755Z,15.16
2024-05-09T20:28:33.949Z,15
2024-05-09T20:31:59.210Z,14.82
2024-05-09T20:35:24.452Z,14.6
2024-05-09T20:38:49.757Z,14.42
2024-05-09T20:42:15.106Z,14.23
2024-05-09T20:45:40.956Z,14.04
2024-05-09T20:49:05.908Z,13.86
2024-05-09T20:52:31.068Z,13.72
2024-05-09T20:55:56.367Z,13.6
2024-05-09T20:59:22.596Z,13.51
2024-05-09T21:02:48.009Z,13.43
2024-05-09T21:06:13.223Z,13.39
2024-05-09T21:09:38.529Z,13.35
2024-05-09T21:13:04.365Z,13.32
2024-05-09T21:16:29.234Z,13.31
2024-05-09T21:19:54.489Z,13.27
2024-05-09T21:23:19.806Z,13.24
2024-05-09T21:26:45.102Z,13.24
2024-05-09T21:30:13.163Z,13.22
2024-05-09T21:33:35.944Z,13.16
2024-05-09T21:37:01.157Z,13.09
2024-05-09T21:40:31.067Z,13.02
2024-05-09T21:43:51.790Z,12.95
2024-05-09T21:47:17.140Z,12.87
2024-05-09T21:50:42.724Z,12.84
2024-05-09T21:54:07.697Z,12.81
2024-05-09T21:57:33.034Z,12.77
2024-05-09T22:00:58.408Z,12.74
2024-05-09T22:04:23.706Z,12.71
2024-05-09T22:07:48.990Z,12.68
2024-05-09T22:11:14.304Z,12.65
2024-05-09T22:14:39.587Z,12.65
2024-05-09T22:18:05.237Z,12.65
2024-05-09T22:21:30.255Z,12.69
2024-05-09T22:24:55.690Z,12.75
2024-05-09T22:28:20.921Z,12.76
2024-05-09T22:31:46.159Z,12.69
2024-05-09T22:35:11.454Z,12.56
2024-05-09T22:38:36.751Z,12.47
2024-05-09T22:42:02.051Z,12.43
2024-05-09T22:45:27.474Z,12.39
2024-05-09T22:48:52.802Z,12.36
2024-05-09T22:52:18.113Z,12.29
2024-05-09T22:55:43.505Z,12.2
2024-05-09T22:59:08.740Z,12.12
2024-05-09T23:02:34.049Z,12.11
2024-05-09T23:05:59.384Z,12.11
2024-05-09T23:09:24.693Z,12.1
2024-05-09T23:12:50.163Z,12.04
2024-05-09T23:16:15.608Z,11.99
2024-05-09T23:19:40.846Z,12.01
2024-05-09T23:23:06.121Z,12.03
2024-05-09T23:26:31.398Z,12.07
2024-05-09T23:29:56.723Z,12.06
2024-05-09T23:33:22.081Z,12.03
2024-05-09T23:36:47.343Z,11.96
2024-05-09T23:40:15.246Z,11.9
2024-05-09T23:43:37.925Z,11.87
2024-05-09T23:47:03.246Z,11.84
2024-05-09T23:50:33.381Z,11.82
2024-05-09T23:53:53.996Z,11.79
2024-05-09T23:57:19.287Z,11.76
